createdAt,value
2023-05-10T00:00:23.677Z,2.15
2023-05-10T00:03:25.695Z,2.35
2023-05-10T00:06:27.919Z,2.00
2023-05-10T00:09:32.097Z,2.30
2023-05-10T00:12:33.875Z,2.58
2023-05-10T00:15:36.053Z,2.20
2023-05-10T00:18:37.903Z,2.17
2023-05-10T00:21:39.676Z,2.40
2023-05-10T00:24:42.984Z,2.33
2023-05-10T00:27:44.781Z,2.50
2023-05-10T00:30:46.513Z,2.40
2023-05-10T00:33:48.295Z,3.08
2023-05-10T00:36:50.109Z,2.50
2023-05-10T00:39:54.305Z,2.22
2023-05-10T00:42:56.707Z,2.50
2023-05-10T00:45:58.880Z,3.08
2023-05-10T00:49:00.941Z,2.65
2023-05-10T00:52:04.105Z,2.72
2023-05-10T00:55:10.701Z,2.30
2023-05-10T00:58:13.362Z,2.92
2023-05-10T01:01:15.951Z,2.90
2023-05-10T01:04:17.872Z,2.53
2023-05-10T01:07:20.635Z,2.50
2023-05-10T01:10:24.088Z,2.72
2023-05-10T01:13:33.558Z,2.33
2023-05-10T01:16:38.469Z,2.95
2023-05-10T01:19:40.617Z,2.58
2023-05-10T01:23:11.040Z,2.75
2023-05-10T01:26:35.433Z,2.40
2023-05-10T01:30:21.902Z,2.80
2023-05-10T01:33:29.875Z,2.85
2023-05-10T01:36:36.160Z,2.58
2023-05-10T01:39:45.747Z,2.42
2023-05-10T01:42:53.393Z,2.33
2023-05-10T01:46:05.726Z,2.58
2023-05-10T01:49:11.695Z,2.67
2023-05-10T01:52:20.339Z,2.80
2023-05-10T01:55:24.295Z,3.28
2023-05-10T01:58:35.379Z,2.78
2023-05-10T02:01:38.951Z,3.00
2023-05-10T02:04:43.198Z,3.03
2023-05-10T02:07:46.588Z,2.63
2023-05-10T02:10:50.855Z,2.67
2023-05-10T02:13:55.024Z,2.53
2023-05-10T02:16:59.610Z,2.90
2023-05-10T02:20:04.980Z,2.45
2023-05-10T02:23:10.094Z,2.65
2023-05-10T02:26:14.468Z,2.88
2023-05-10T02:29:17.893Z,2.67
2023-05-10T02:32:20.485Z,3.03
2023-05-10T02:35:25.298Z,2.45
2023-05-10T02:38:28.064Z,2.63
2023-05-10T02:41:33.465Z,2.50
2023-05-10T02:44:37.686Z,3.03
2023-05-10T02:47:40.638Z,3.00
2023-05-10T02:50:45.977Z,2.63
2023-05-10T02:53:49.304Z,3.05
2023-05-10T02:56:54.911Z,2.95
2023-05-10T02:59:56.941Z,2.63
2023-05-10T03:02:59.537Z,2.63
2023-05-10T03:06:02.821Z,2.88
2023-05-10T03:09:05.626Z,2.90
2023-05-10T03:12:15.192Z,2.70
2023-05-10T03:15:26.112Z,3.60
2023-05-10T03:18:34.891Z,2.90
2023-05-10T03:21:42.702Z,2.72
2023-05-10T03:24:47.745Z,2.63
2023-05-10T03:27:50.945Z,2.83
2023-05-10T03:30:54.117Z,2.65
2023-05-10T03:33:56.080Z,2.97
2023-05-10T03:36:59.397Z,3.40
2023-05-10T03:40:02.253Z,2.90
2023-05-10T03:43:04.164Z,3.10
2023-05-10T03:46:06.600Z,3.20
2023-05-10T03:49:09.136Z,3.10
2023-05-10T03:52:13.048Z,3.35
2023-05-10T03:55:15.230Z,3.10
2023-05-10T03:58:17.089Z,2.97
2023-05-10T04:01:18.880Z,2.90
2023-05-10T04:04:22.450Z,2.72
2023-05-10T04:07:25.641Z,3.10
2023-05-10T04:10:28.160Z,3.38
2023-05-10T04:13:29.926Z,2.90
2023-05-10T04:16:31.922Z,3.03
2023-05-10T04:19:34.780Z,2.78
2023-05-10T04:22:38.016Z,3.67
2023-05-10T04:25:40.121Z,2.95
2023-05-10T04:28:41.891Z,3.38
2023-05-10T04:31:43.737Z,3.13
2023-05-10T04:34:46.136Z,3.30
2023-05-10T04:37:49.398Z,3.53
2023-05-10T04:40:51.192Z,3.30
2023-05-10T04:43:53.113Z,3.33
2023-05-10T04:46:54.992Z,2.85
2023-05-10T04:49:57.043Z,3.60
2023-05-10T04:53:00.405Z,3.13
2023-05-10T04:56:02.217Z,3.00
2023-05-10T04:59:05.126Z,3.17
2023-05-10T05:02:07.040Z,4.20
2023-05-10T05:05:09.377Z,3.58
2023-05-10T05:08:12.605Z,3.20
2023-05-10T05:11:14.434Z,3.17
2023-05-10T05:14:17.017Z,3.15
2023-05-10T05:17:18.846Z,3.05
2023-05-10T05:20:21.201Z,3.25
2023-05-10T05:23:25.910Z,3.67
2023-05-10T05:26:27.761Z,3.08
2023-05-10T05:29:29.929Z,3.40
2023-05-10T05:32:31.885Z,3.55
2023-05-10T05:35:34.480Z,3.22
2023-05-10T05:38:37.862Z,3.45
2023-05-10T05:41:39.733Z,3.30
2023-05-10T05:44:41.980Z,3.00
2023-05-10T05:47:43.888Z,3.45
2023-05-10T05:50:46.670Z,3.20
2023-05-10T05:53:49.863Z,4.00
2023-05-10T05:56:51.821Z,2.80
2023-05-10T05:59:54.161Z,3.30
2023-05-10T06:02:56.073Z,4.75
2023-05-10T06:05:58.858Z,3.95
2023-05-10T06:09:02.098Z,4.22
2023-05-10T06:12:04.238Z,4.05
2023-05-10T06:15:06.988Z,4.13
2023-05-10T06:18:08.826Z,4.22
2023-05-10T06:21:10.891Z,4.75
2023-05-10T06:24:14.134Z,4.03
2023-05-10T06:27:15.953Z,4.28
2023-05-10T06:30:17.851Z,4.53
2023-05-10T06:33:19.640Z,4.30
2023-05-10T06:36:21.895Z,3.47
2023-05-10T06:39:25.138Z,3.78
2023-05-10T06:42:28.388Z,4.05
2023-05-10T06:45:30.207Z,3.88
2023-05-10T06:48:32.075Z,3.03
2023-05-10T06:51:34.000Z,3.63
2023-05-10T06:54:38.118Z,3.88
2023-05-10T06:57:39.856Z,3.58
2023-05-10T07:00:44.640Z,3.90
2023-05-10T07:03:46.540Z,3.80
2023-05-10T07:06:48.485Z,3.58
2023-05-10T07:09:52.283Z,3.63
2023-05-10T07:12:54.288Z,3.47
2023-05-10T07:15:56.140Z,3.75
2023-05-10T07:18:58.009Z,4.45
2023-05-10T07:22:00.694Z,3.58
2023-05-10T07:25:04.205Z,3.58
2023-05-10T07:28:06.825Z,3.78
2023-05-10T07:31:08.800Z,3.75
2023-05-10T07:34:11.016Z,4.03
2023-05-10T07:37:13.644Z,4.43
2023-05-10T07:40:16.903Z,3.97
2023-05-10T07:43:19.667Z,3.72
2023-05-10T07:46:21.712Z,3.60
2023-05-10T07:49:25.280Z,4.15
2023-05-10T07:52:27.159Z,2.67
2023-05-10T07:55:31.198Z,3.45
2023-05-10T07:58:33.195Z,3.60
2023-05-10T08:01:36.095Z,4.25
2023-05-10T08:04:37.991Z,3.25
2023-05-10T08:07:40.695Z,2.70
2023-05-10T08:10:44.168Z,3.75
2023-05-10T08:13:46.610Z,3.58
2023-05-10T08:16:48.639Z,4.07
2023-05-10T08:19:50.561Z,2.88
2023-05-10T08:22:52.458Z,2.95
2023-05-10T08:25:55.743Z,3.30
2023-05-10T08:28:58.460Z,3.65
2023-05-10T08:32:01.943Z,3.22
2023-05-10T08:35:04.976Z,3.30
2023-05-10T08:38:06.799Z,3.10
2023-05-10T08:41:12.202Z,2.88
2023-05-10T08:47:19.235Z,2.90
2023-05-10T08:53:26.777Z,2.83
2023-05-10T08:56:30.930Z,3.03
2023-05-10T08:59:34.152Z,2.67
2023-05-10T09:02:38.366Z,2.90
2023-05-10T09:05:40.314Z,3.00
2023-05-10T09:08:43.889Z,3.17
2023-05-10T09:11:47.670Z,3.45
2023-05-10T09:14:51.783Z,2.90
2023-05-10T09:17:53.938Z,3.35
2023-05-10T09:20:56.031Z,3.28
2023-05-10T09:23:58.340Z,3.05
2023-05-10T09:27:02.816Z,2.70
2023-05-10T09:30:07.612Z,2.97
2023-05-10T09:33:09.450Z,2.92
2023-05-10T09:36:11.995Z,2.45
2023-05-10T09:39:13.868Z,2.70
2023-05-10T09:42:19.648Z,3.13
2023-05-10T09:45:22.259Z,3.05
2023-05-10T09:48:25.914Z,2.33
2023-05-10T09:51:30.350Z,3.00
2023-05-10T09:54:32.943Z,2.67
2023-05-10T09:57:36.240Z,2.78
2023-05-10T10:00:40.317Z,3.00
2023-05-10T10:03:44.348Z,2.50
2023-05-10T10:06:46.343Z,2.70
2023-05-10T10:09:48.410Z,3.10
2023-05-10T10:12:51.919Z,2.63
2023-05-10T10:15:55.892Z,3.00
2023-05-10T10:18:57.998Z,2.60
2023-05-10T10:22:00.214Z,2.47
2023-05-10T10:25:02.429Z,3.30
2023-05-10T10:28:23.123Z,2.83
2023-05-10T10:31:32.157Z,3.08
2023-05-10T10:34:34.675Z,2.35
2023-05-10T10:37:45.161Z,2.15
2023-05-10T10:40:47.179Z,2.90
2023-05-10T10:43:50.387Z,2.80
2023-05-10T10:47:03.781Z,2.60
2023-05-10T10:50:09.092Z,2.40
2023-05-10T10:53:12.517Z,3.10
2023-05-10T10:56:16.330Z,2.28
2023-05-10T10:59:29.414Z,2.13
2023-05-10T11:02:36.344Z,2.53
2023-05-10T11:05:41.574Z,1.88
2023-05-10T11:08:47.117Z,2.20
2023-05-10T11:11:56.116Z,2.00
2023-05-10T11:15:00.079Z,1.70
2023-05-10T11:18:19.086Z,1.80
2023-05-10T11:21:21.060Z,1.90
2023-05-10T11:24:24.293Z,2.22
2023-05-10T11:27:26.670Z,2.20
2023-05-10T11:30:32.009Z,1.95
2023-05-10T11:33:43.784Z,2.40
2023-05-10T11:36:52.819Z,2.03
2023-05-10T11:39:56.134Z,2.20
2023-05-10T11:42:58.061Z,2.58
2023-05-10T11:46:01.516Z,2.15
2023-05-10T11:49:05.626Z,2.03
2023-05-10T11:52:08.251Z,2.05
2023-05-10T11:55:11.030Z,2.10
2023-05-10T11:58:12.835Z,2.08
2023-05-10T12:01:16.362Z,2.17
2023-05-10T12:04:18.423Z,1.67
2023-05-10T12:07:20.644Z,2.10
2023-05-10T12:10:28.266Z,1.73
2023-05-10T12:13:30.126Z,1.90
2023-05-10T12:16:33.592Z,2.20
2023-05-10T12:19:39.635Z,2.30
2023-05-10T12:22:41.596Z,2.00
2023-05-10T12:25:44.389Z,1.92
2023-05-10T12:28:46.159Z,2.10
2023-05-10T12:31:55.483Z,2.05
2023-05-10T12:34:58.857Z,2.08
2023-05-10T12:38:00.782Z,1.83
2023-05-10T12:41:05.253Z,1.83
2023-05-10T12:44:07.174Z,2.30
2023-05-10T12:47:11.835Z,2.00
2023-05-10T12:50:13.594Z,1.63
2023-05-10T12:53:16.668Z,2.22
2023-05-10T12:56:18.528Z,1.77
2023-05-10T12:59:20.893Z,1.85
2023-05-10T13:02:24.327Z,1.80
2023-05-10T13:05:26.798Z,1.88
2023-05-10T13:08:30.732Z,2.17
2023-05-10T13:11:32.754Z,1.30
2023-05-10T13:14:34.552Z,1.92
2023-05-10T13:17:39.961Z,2.42
2023-05-10T13:20:44.121Z,1.60
2023-05-10T13:23:46.030Z,2.03
2023-05-10T13:26:47.855Z,1.60
2023-05-10T13:29:49.730Z,2.10
2023-05-10T13:32:53.006Z,1.98
2023-05-10T13:35:55.935Z,1.80
2023-05-10T13:38:57.846Z,1.67
2023-05-10T13:41:59.629Z,2.00
2023-05-10T13:45:02.843Z,1.60
2023-05-10T13:48:06.909Z,1.80
2023-05-10T13:51:09.635Z,1.50
2023-05-10T13:54:13.453Z,2.00
2023-05-10T13:57:17.739Z,1.70
2023-05-10T14:00:20.087Z,1.48
2023-05-10T14:03:23.336Z,1.70
2023-05-10T14:06:25.671Z,1.65
2023-05-10T14:09:27.394Z,1.70
2023-05-10T14:12:29.102Z,1.60
2023-05-10T14:15:30.891Z,1.83
2023-05-10T14:18:34.062Z,1.80
2023-05-10T14:21:36.651Z,1.52
2023-05-10T14:24:39.238Z,1.63
2023-05-10T14:27:41.766Z,1.45
2023-05-10T14:30:43.574Z,1.58
2023-05-10T14:33:47.084Z,1.90
2023-05-10T14:36:48.906Z,1.80
2023-05-10T14:39:51.578Z,1.58
2023-05-10T14:42:54.065Z,1.75
2023-05-10T14:45:56.642Z,1.40
2023-05-10T14:48:59.798Z,2.00
2023-05-10T14:52:01.752Z,1.30
2023-05-10T14:55:05.246Z,1.65
2023-05-10T14:58:07.073Z,1.90
2023-05-10T15:01:08.959Z,1.73
2023-05-10T15:04:14.488Z,1.90
2023-05-10T15:07:18.418Z,1.80
2023-05-10T15:10:20.573Z,1.67
2023-05-10T15:13:22.358Z,1.40
2023-05-10T15:16:24.767Z,2.05
2023-05-10T15:19:28.442Z,1.50
2023-05-10T15:22:32.436Z,1.35
2023-05-10T15:25:36.174Z,1.50
2023-05-10T15:28:38.439Z,1.23
2023-05-10T15:31:40.586Z,1.45
2023-05-10T15:34:44.860Z,1.98
2023-05-10T15:37:48.439Z,1.40
2023-05-10T15:40:50.237Z,1.52
2023-05-10T15:43:52.384Z,1.40
2023-05-10T15:46:54.317Z,0.98
2023-05-10T15:49:57.867Z,1.80
2023-05-10T15:52:59.747Z,1.65
2023-05-10T15:56:02.459Z,1.50
2023-05-10T15:59:06.171Z,1.60
2023-05-10T16:02:09.226Z,1.92
2023-05-10T16:05:13.972Z,1.30
2023-05-10T16:08:16.388Z,1.80
2023-05-10T16:11:18.173Z,1.63
2023-05-10T16:14:23.005Z,2.03
2023-05-10T16:17:25.020Z,2.10
2023-05-10T16:20:30.109Z,2.15
2023-05-10T16:23:32.252Z,1.77
2023-05-10T16:26:40.785Z,1.90
2023-05-10T16:29:42.716Z,1.77
2023-05-10T16:32:44.573Z,1.60
2023-05-10T16:35:48.751Z,2.00
2023-05-10T16:38:51.298Z,1.55
2023-05-10T16:41:53.339Z,1.73
2023-05-10T16:44:55.262Z,1.75
2023-05-10T16:47:57.307Z,1.58
2023-05-10T16:51:02.476Z,2.00
2023-05-10T16:54:05.455Z,1.70
2023-05-10T16:57:08.587Z,1.80
2023-05-10T17:00:12.110Z,2.22
2023-05-10T17:03:14.037Z,1.50
2023-05-10T17:06:17.616Z,2.78
2023-05-10T17:09:20.667Z,2.35
2023-05-10T17:12:23.278Z,2.28
2023-05-10T17:15:25.035Z,2.05
2023-05-10T17:18:27.117Z,2.42
2023-05-10T17:21:32.131Z,2.22
2023-05-10T17:24:34.020Z,3.08
2023-05-10T17:27:36.203Z,1.88
2023-05-10T17:30:38.029Z,2.33
2023-05-10T17:33:40.336Z,2.38
2023-05-10T17:36:43.577Z,2.03
2023-05-10T17:39:46.503Z,2.42
2023-05-10T17:42:48.866Z,2.40
2023-05-10T17:45:50.772Z,1.77
2023-05-10T17:48:53.130Z,1.98
2023-05-10T17:51:56.356Z,2.63
2023-05-10T17:55:00.142Z,2.17
2023-05-10T17:58:02.106Z,2.28
2023-05-10T18:01:04.556Z,2.58
2023-05-10T18:04:07.967Z,2.20
2023-05-10T18:07:11.186Z,2.42
2023-05-10T18:10:13.059Z,3.03
2023-05-10T18:13:14.951Z,2.60
2023-05-10T18:16:16.828Z,2.35
2023-05-10T18:19:19.075Z,2.50
2023-05-10T18:22:22.692Z,2.50
2023-05-10T18:25:25.630Z,2.30
2023-05-10T18:28:27.612Z,1.85
2023-05-10T18:31:30.220Z,2.47
2023-05-10T18:34:32.090Z,2.30
2023-05-10T18:37:36.018Z,2.38
2023-05-10T18:40:39.094Z,2.80
2023-05-10T18:43:42.728Z,2.53
2023-05-10T18:46:46.245Z,2.80
2023-05-10T18:49:48.519Z,2.75
2023-05-10T18:52:52.061Z,3.10
2023-05-10T18:55:58.910Z,2.58
2023-05-10T18:59:02.900Z,2.20
2023-05-10T19:02:05.119Z,2.00
2023-05-10T19:05:08.211Z,2.45
2023-05-10T19:08:11.580Z,3.15
2023-05-10T19:11:14.968Z,2.33
2023-05-10T19:14:17.509Z,2.35
2023-05-10T19:17:20.837Z,2.10
2023-05-10T19:20:23.992Z,2.53
2023-05-10T19:23:27.380Z,2.38
2023-05-10T19:26:30.582Z,2.90
2023-05-10T19:29:32.706Z,2.47
2023-05-10T19:32:36.556Z,2.85
2023-05-10T19:35:39.770Z,2.83
2023-05-10T19:38:43.047Z,2.30
2023-05-10T19:41:45.500Z,2.72
2023-05-10T19:44:48.556Z,2.88
2023-05-10T19:47:51.013Z,2.80
2023-05-10T19:50:53.554Z,2.70
2023-05-10T19:53:56.839Z,2.53
2023-05-10T19:56:59.594Z,2.63
2023-05-10T20:00:01.564Z,2.65
2023-05-10T20:03:07.000Z,2.50
2023-05-10T20:06:14.670Z,2.28
2023-05-10T20:09:47.368Z,2.50
2023-05-10T20:13:10.393Z,2.00
2023-05-10T20:16:15.858Z,2.40
2023-05-10T20:22:25.756Z,2.40
2023-05-10T20:25:29.087Z,2.60
2023-05-10T20:28:32.070Z,2.53
2023-05-10T20:31:34.079Z,2.20
2023-05-10T20:34:39.472Z,2.33
2023-05-10T20:37:41.568Z,2.40
2023-05-10T20:40:45.585Z,2.97
2023-05-10T20:43:47.483Z,2.40
2023-05-10T20:46:49.870Z,2.50
2023-05-10T20:49:51.771Z,2.45
2023-05-10T20:52:53.640Z,2.53
2023-05-10T20:55:57.122Z,2.08
2023-05-10T20:58:59.051Z,2.30
2023-05-10T21:02:01.325Z,1.90
2023-05-10T21:05:03.979Z,2.50
2023-05-10T21:08:05.974Z,2.38
2023-05-10T21:11:10.042Z,2.20
2023-05-10T21:14:11.923Z,2.53
2023-05-10T21:17:14.752Z,2.20
2023-05-10T21:20:17.143Z,2.60
2023-05-10T21:23:19.146Z,1.95
2023-05-10T21:26:22.378Z,2.30
2023-05-10T21:29:24.571Z,1.90
2023-05-10T21:32:26.389Z,2.70
2023-05-10T21:35:30.394Z,2.28
2023-05-10T21:38:33.352Z,2.45
2023-05-10T21:41:36.501Z,2.65
2023-05-10T21:44:38.809Z,2.53
2023-05-10T21:47:40.645Z,2.00
2023-05-10T21:50:43.838Z,2.15
2023-05-10T21:53:45.661Z,2.50
2023-05-10T21:56:49.156Z,2.63
2023-05-10T21:59:51.560Z,2.00
2023-05-10T22:02:53.526Z,2.25
2023-05-10T22:05:55.386Z,2.45
2023-05-10T22:08:57.521Z,2.30
2023-05-10T22:12:00.693Z,2.10
2023-05-10T22:18:07.475Z,2.53
2023-05-10T22:21:09.554Z,2.40
2023-05-10T22:24:11.407Z,2.60
2023-05-10T22:27:15.117Z,2.50
2023-05-10T22:30:18.220Z,2.67
2023-05-10T22:33:20.241Z,2.45
2023-05-10T22:36:22.711Z,2.88
2023-05-10T22:39:24.577Z,3.05
2023-05-10T22:42:27.824Z,3.00
2023-05-10T22:45:29.640Z,2.90
2023-05-10T22:48:34.670Z,2.80
2023-05-10T22:51:37.451Z,2.92
2023-05-10T22:54:39.224Z,2.67
2023-05-10T22:57:43.200Z,2.40
2023-05-10T23:00:45.113Z,2.33
2023-05-10T23:03:47.430Z,2.50
2023-05-10T23:06:49.268Z,2.47
2023-05-10T23:09:51.045Z,2.58
2023-05-10T23:12:56.047Z,2.88
2023-05-10T23:15:58.018Z,2.50
2023-05-10T23:19:00.413Z,2.70
2023-05-10T23:22:02.267Z,3.17
2023-05-10T23:25:04.997Z,2.65
2023-05-10T23:28:08.168Z,2.60
2023-05-10T23:31:10.318Z,2.80
2023-05-10T23:34:12.294Z,2.85
2023-05-10T23:37:15.710Z,2.65
2023-05-10T23:40:17.786Z,2.53
2023-05-10T23:43:21.828Z,2.17
2023-05-10T23:46:23.712Z,2.25
2023-05-10T23:49:25.575Z,2.45
2023-05-10T23:52:28.353Z,2.42
2023-05-10T23:55:30.199Z,2.33
2023-05-10T23:58:33.598Z,2.65
